Time;durP1;ratioP1;P1;durP2;ratioP2;P2;SDS_P1;SDS_P2;PMS_P1;PMS_P2;Temp;Humidity;BMP_temperature;BMP_pressure;BME280_temperature;BME280_humidity;BME280_pressure;Samples;Min_cycle;Max_cycle;Signal;HPM_P1;HPM_P2
2021/12/06 00:00:31;;;;;;;9.10;1.70;;;;;;;4.93;84.13;100763.66;5056459;28;20057;-50
2021/12/06 00:03:02;;;;;;;;;;;;;;;4.78;84.38;100758.00;5056666;28;20061;-51
2021/12/06 00:05:31;;;;;;;7.30;1.45;;;;;;;4.60;85.26;100748.94;5056902;28;19921;-52
2021/12/06 00:07:59;;;;;;;9.75;1.23;;;;;;;4.61;85.39;100749.84;5056258;28;20064;-52
2021/12/06 00:10:28;;;;;;;6.30;1.02;;;;;;;4.53;85.87;100752.69;5056583;28;20065;-52
2021/12/06 00:12:56;;;;;;;9.10;1.50;;;;;;;4.46;86.28;100754.69;5056526;28;20053;-52
2021/12/06 00:15:26;;;;;;;10.82;1.38;;;;;;;4.38;86.83;100747.97;5055924;28;20064;-52
2021/12/06 00:17:54;;;;;;;12.80;2.05;;;;;;;4.42;87.04;100750.44;5056144;28;20061;-50
2021/12/06 00:20:24;;;;;;;6.82;1.20;;;;;;;4.47;86.62;100761.66;5055882;28;20053;-50
2021/12/06 00:22:52;;;;;;;13.75;2.15;;;;;;;4.46;86.98;100762.56;5056531;28;20060;-52
2021/12/06 00:25:21;;;;;;;9.73;1.35;;;;;;;4.45;87.02;100771.38;5057161;28;20053;-52
2021/12/06 00:27:50;;;;;;;3.30;1.27;;;;;;;4.53;86.68;100784.22;5055820;28;20057;-51
2021/12/06 00:30:18;;;;;;;10.15;1.50;;;;;;;4.55;86.84;100784.19;5057038;28;20057;-52
2021/12/06 00:32:47;;;;;;;9.23;1.67;;;;;;;4.43;87.19;100781.03;5055831;28;20057;-51
2021/12/06 00:35:21;;;;;;;11.80;1.58;;;;;;;4.41;87.79;100789.91;5055587;28;20053;-52
2021/12/06 00:37:58;;;;;;;17.25;1.83;;;;;;;4.36;88.65;100792.66;5055497;28;20063;-49
2021/12/06 00:40:30;;;;;;;8.93;1.38;;;;;;;4.20;88.92;100780.91;5056363;28;20427;-52
2021/12/06 00:42:58;;;;;;;9.27;1.63;;;;;;;4.04;89.58;100785.78;5055395;28;20057;-52
2021/12/06 00:45:27;;;;;;;15.05;2.30;;;;;;;3.95;90.61;100781.69;5055633;28;20060;-51
2021/12/06 00:47:55;;;;;;;10.77;2.05;;;;;;;3.86;92.15;100785.44;5055440;28;20068;-51
2021/12/06 00:50:25;;;;;;;10.60;2.22;;;;;;;3.86;92.29;100788.03;5056388;28;20056;-52
2021/12/06 00:52:55;;;;;;;11.15;1.95;;;;;;;3.79;92.61;100785.66;5056264;28;20049;-52
2021/12/06 00:55:24;;;;;;;11.07;1.92;;;;;;;3.81;93.35;100779.44;5055104;28;20057;-51
2021/12/06 00:57:53;;;;;;;11.98;1.90;;;;;;;3.83;93.33;100780.28;5056495;28;20056;-52
2021/12/06 01:00:24;;;;;;;12.60;2.20;;;;;;;3.79;93.61;100778.66;5055611;28;20199;-51
2021/12/06 01:02:53;;;;;;;9.37;1.67;;;;;;;3.82;93.89;100780.34;5056468;28;20063;-52
2021/12/06 01:05:23;;;;;;;11.43;2.38;;;;;;;3.79;93.96;100776.03;5055831;28;20355;-50
2021/12/06 01:07:53;;;;;;;9.75;2.40;;;;;;;3.77;94.31;100771.75;5056039;28;20420;-52
2021/12/06 01:10:26;;;;;;;17.70;1.98;;;;;;;3.67;94.53;100772.00;5056304;28;20057;-52
2021/12/06 01:12:56;;;;;;;11.90;1.95;;;;;;;3.55;94.91;100751.38;5054838;28;20056;-52
2021/12/06 01:15:25;;;;;;;15.80;2.35;;;;;;;3.55;94.96;100767.13;5054811;28;20409;-52
2021/12/06 01:17:55;;;;;;;16.83;2.30;;;;;;;3.38;95.42;100770.22;5055220;28;20057;-52
2021/12/06 01:20:28;;;;;;;16.33;3.03;;;;;;;3.19;96.36;100764.59;5054868;28;20440;-51
2021/12/06 01:23:02;;;;;;;6.95;1.98;;;;;;;3.04;96.88;100758.00;5054619;28;20532;-51
2021/12/06 01:25:39;;;;;;;12.30;2.47;;;;;;;2.99;97.92;100759.91;5055491;28;20060;-50
2021/12/06 01:28:34;;;;;;;17.58;2.70;;;;;;;2.88;98.01;100749.72;5054447;28;20072;-52
2021/12/06 01:31:08;;;;;;;13.52;2.20;;;;;;;2.77;98.61;100751.75;5055351;28;20057;-52
2021/12/06 01:34:05;;;;;;;18.45;4.45;;;;;;;2.78;99.69;100756.09;5055137;28;20099;-50
2021/12/06 01:39:22;;;;;;;11.68;2.28;;;;;;;2.63;100.00;100749.50;5054603;28;20093;-52
2021/12/06 01:41:54;;;;;;;9.80;2.63;;;;;;;2.54;100.00;100755.81;5054282;28;20057;-51
2021/12/06 01:44:25;;;;;;;9.00;2.50;;;;;;;2.40;100.00;100766.66;5054298;28;20431;-52
2021/12/06 01:46:56;;;;;;;4.47;1.60;;;;;;;2.38;100.00;100767.56;5054258;28;20056;-50
2021/12/06 01:49:26;;;;;;;9.10;1.60;;;;;;;2.36;100.00;100772.00;5054456;28;20136;-52
2021/12/06 01:51:56;;;;;;;6.78;2.53;;;;;;;2.30;100.00;100759.03;5054635;28;20626;-52
2021/12/06 01:54:24;;;;;;;13.40;2.13;;;;;;;2.22;100.00;100762.69;5054095;28;20542;-50
2021/12/06 01:56:54;;;;;;;16.25;2.67;;;;;;;2.18;100.00;100762.81;5055128;28;20489;-52
2021/12/06 01:59:24;;;;;;;14.43;2.80;;;;;;;2.20;100.00;100761.88;5054537;28;20056;-52
2021/12/06 02:01:54;;;;;;;24.92;3.17;;;;;;;2.21;100.00;100762.72;5054944;28;20124;-49
2021/12/06 02:04:23;;;;;;;20.30;4.38;;;;;;;2.16;100.00;100762.84;5053929;28;20092;-51
2021/12/06 02:06:51;;;;;;;9.73;2.53;;;;;;;2.15;100.00;100758.53;5054644;28;20053;-52
2021/12/06 02:09:21;;;;;;;18.58;3.28;;;;;;;2.23;100.00;100756.56;5054042;28;20061;-51
2021/12/06 02:11:51;;;;;;;20.63;4.28;;;;;;;2.36;100.00;100764.13;5054099;28;20060;-51
2021/12/06 02:14:29;;;;;;;11.32;2.65;;;;;;;2.43;100.00;100773.56;5055001;28;20404;-52
2021/12/06 02:17:07;;;;;;;8.43;1.95;;;;;;;2.40;100.00;100778.84;5055257;28;20366;-50
2021/12/06 02:19:40;;;;;;;14.07;3.25;;;;;;;2.33;100.00;100772.06;5053811;28;20052;-52
2021/12/06 02:22:11;;;;;;;12.45;2.40;;;;;;;2.20;100.00;100756.66;5054509;28;20061;-50
2021/12/06 02:24:40;;;;;;;9.93;2.30;;;;;;;2.20;100.00;100774.09;5054659;28;20053;-52
2021/12/06 02:27:10;;;;;;;12.27;2.70;;;;;;;2.14;100.00;100776.88;5053940;28;20532;-52
2021/12/06 02:29:39;;;;;;;7.72;2.00;;;;;;;2.14;100.00;100771.63;5054432;28;20072;-51
2021/12/06 02:32:11;;;;;;;10.55;2.47;;;;;;;2.01;100.00;100771.91;5053866;28;20059;-50
2021/12/06 02:34:40;;;;;;;13.73;2.03;;;;;;;1.96;100.00;100778.97;5053614;28;20049;-50
2021/12/06 02:37:11;;;;;;;4.78;2.13;;;;;;;1.99;100.00;100785.94;5054574;28;20061;-51
2021/12/06 02:39:39;;;;;;;6.68;2.00;;;;;;;1.96;100.00;100778.97;5053881;28;20057;-52
2021/12/06 02:42:10;;;;;;;6.07;1.75;;;;;;;2.02;100.00;100788.47;5054126;28;20080;-50
2021/12/06 02:44:39;;;;;;;13.95;3.05;;;;;;;2.06;100.00;100790.13;5054981;28;20064;-49
2021/12/06 02:47:07;;;;;;;25.75;3.17;;;;;;;2.10;100.00;100770.84;5053766;28;20505;-51
2021/12/06 02:49:35;;;;;;;14.48;2.30;;;;;;;2.11;100.00;100772.56;5053945;28;20442;-51
2021/12/06 02:52:04;;;;;;;12.35;2.90;;;;;;;2.06;100.00;100773.56;5053994;28;20057;-51
2021/12/06 02:54:34;;;;;;;15.85;3.78;;;;;;;1.98;100.00;100771.97;5054613;28;20064;-49
2021/12/06 02:57:19;;;;;;;12.85;2.65;;;;;;;1.95;100.00;100772.06;5054757;28;20409;-51
2021/12/06 02:59:49;;;;;;;6.50;2.00;;;;;;;1.88;100.00;100756.50;5054611;28;20068;-51
2021/12/06 03:02:19;;;;;;;6.25;2.28;;;;;;;1.84;100.00;100743.50;5053636;28;20053;-52
2021/12/06 03:04:48;;;;;;;10.02;2.05;;;;;;;1.74;100.00;100736.75;5056590;28;20057;-52
2021/12/06 03:07:20;;;;;;;19.42;3.67;;;;;;;1.72;100.00;100728.06;5057442;28;20493;-52
2021/12/06 03:09:53;;;;;;;;;;;;;;;1.59;100.00;100727.47;5058436;28;20123;-52
2021/12/06 03:12:24;;;;;;;11.60;2.25;;;;;;;1.53;100.00;100718.91;5057103;28;20011;-52
2021/12/06 03:14:55;;;;;;;8.77;2.00;;;;;;;1.58;100.00;100730.13;5057876;28;20053;-50
2021/12/06 03:17:24;;;;;;;12.45;2.70;;;;;;;1.63;100.00;100728.25;5058426;28;20139;-51
2021/12/06 03:19:53;;;;;;;18.17;3.33;;;;;;;1.62;100.00;100729.19;5057824;28;20072;-51
2021/12/06 03:22:22;;;;;;;11.43;2.25;;;;;;;1.54;100.00;100718.88;5057236;28;20057;-52
2021/12/06 03:24:51;;;;;;;10.20;2.30;;;;;;;1.47;100.00;100705.06;5056874;28;20060;-51
2021/12/06 03:27:20;;;;;;;5.57;1.83;;;;;;;1.49;100.00;100716.34;5057092;28;20065;-51
2021/12/06 03:29:49;;;;;;;13.80;2.60;;;;;;;1.58;100.00;100719.66;5057224;28;20061;-51
2021/12/06 03:32:17;;;;;;;15.40;2.35;;;;;;;1.61;100.00;100710.00;5057278;28;20061;-51
2021/12/06 03:34:45;;;;;;;13.45;3.08;;;;;;;1.63;100.00;100712.56;5056756;28;20052;-51
2021/12/06 03:37:13;;;;;;;8.20;2.47;;;;;;;1.63;100.00;100712.56;5056888;28;20053;-51
2021/12/06 03:39:44;;;;;;;11.40;2.92;;;;;;;1.59;100.00;100705.69;5057173;28;20057;-50
2021/12/06 03:42:16;;;;;;;10.45;2.75;;;;;;;1.56;100.00;100695.31;5057762;28;20122;-51
2021/12/06 03:44:44;;;;;;;11.27;2.88;;;;;;;1.45;100.00;100687.72;5058011;28;20053;-51
2021/12/06 03:47:16;;;;;;;15.35;2.60;;;;;;;1.58;100.00;100680.44;5057200;28;20053;-49
2021/12/06 03:49:45;;;;;;;8.57;2.70;;;;;;;1.67;100.00;100685.47;5057255;28;20064;-52
2021/12/06 03:52:13;;;;;;;13.63;2.30;;;;;;;1.73;100.00;100672.28;5057343;28;20411;-51
2021/12/06 03:54:43;;;;;;;12.63;2.17;;;;;;;1.78;100.00;100680.88;5056329;28;20053;-50
2021/12/06 03:57:13;;;;;;;10.20;2.20;;;;;;;1.81;100.00;100680.78;5057677;28;20057;-52
2021/12/06 03:59:41;;;;;;;15.02;2.25;;;;;;;1.92;100.00;100682.31;5056768;28;20061;-51
2021/12/06 04:02:11;;;;;;;13.20;2.28;;;;;;;2.00;100.00;100685.56;5057013;28;20061;-51
2021/12/06 04:04:39;;;;;;;8.65;2.20;;;;;;;2.03;100.00;100690.75;5057323;28;20140;-52
2021/12/06 04:07:09;;;;;;;11.75;2.15;;;;;;;2.06;100.00;100695.06;5056883;28;20060;-51
2021/12/06 04:09:37;;;;;;;13.07;2.10;;;;;;;2.07;100.00;100687.16;5057365;28;20057;-52
2021/12/06 04:12:06;;;;;;;14.13;2.28;;;;;;;2.07;100.00;100681.06;5056599;28;20057;-52
2021/12/06 04:14:35;;;;;;;16.30;2.40;;;;;;;2.20;100.00;100680.75;5055608;28;20060;-53
2021/12/06 04:17:04;;;;;;;13.32;3.20;;;;;;;2.31;100.00;100682.22;5056186;28;20057;-52
2021/12/06 04:19:34;;;;;;;9.90;3.28;;;;;;;2.39;100.00;100682.91;5057185;28;20053;-52
2021/12/06 04:22:03;;;;;;;19.52;2.20;;;;;;;2.38;100.00;100683.78;5056829;28;20061;-52
2021/12/06 04:24:32;;;;;;;14.60;2.85;;;;;;;2.37;100.00;100680.31;5056914;28;20413;-50
2021/12/06 04:27:05;;;;;;;10.93;2.35;;;;;;;2.48;100.00;100679.19;5056261;28;20060;-49
2021/12/06 04:29:35;;;;;;;12.88;2.33;;;;;;;2.51;100.00;100674.72;5056507;28;20053;-52
2021/12/06 04:32:04;;;;;;;11.73;2.42;;;;;;;2.63;100.00;100675.31;5055635;28;20132;-52
2021/12/06 04:34:32;;;;;;;14.48;2.25;;;;;;;2.74;100.00;100678.47;5055893;28;20496;-51
2021/12/06 04:37:00;;;;;;;11.25;2.40;;;;;;;2.84;100.00;100674.72;5055792;28;20067;-51
2021/12/06 04:39:29;;;;;;;7.60;1.92;;;;;;;2.86;100.00;100672.91;5055707;28;20064;-49
2021/12/06 04:41:57;;;;;;;17.80;2.25;;;;;;;2.87;100.00;100677.25;5055665;28;20069;-51
2021/12/06 04:44:25;;;;;;;11.50;2.10;;;;;;;2.86;100.00;100667.69;5056012;28;20056;-51
2021/12/06 04:46:55;;;;;;;8.93;1.77;;;;;;;2.91;100.00;100660.53;5055892;28;20053;-50
2021/12/06 04:49:26;;;;;;;13.15;2.50;;;;;;;3.00;100.00;100674.31;5055812;28;20071;-50
2021/12/06 04:51:55;;;;;;;13.10;2.13;;;;;;;3.07;100.00;100679.31;5055165;28;20061;-52
2021/12/06 04:54:26;;;;;;;7.32;1.92;;;;;;;3.06;100.00;100671.47;5056647;28;20064;-51
2021/12/06 04:56:58;;;;;;;11.82;2.45;;;;;;;3.07;100.00;100670.59;5056165;28;20061;-52
2021/12/06 04:59:30;;;;;;;12.70;2.60;;;;;;;3.11;100.00;100670.47;5055420;28;20060;-50
2021/12/06 05:02:02;;;;;;;14.07;3.15;;;;;;;3.07;100.00;100660.09;5056510;28;20057;-51
2021/12/06 05:04:34;;;;;;;11.30;2.50;;;;;;;3.10;100.00;100667.88;5054997;28;20513;-51
2021/12/06 05:07:10;;;;;;;10.02;2.97;;;;;;;3.14;100.00;100674.75;5055891;28;20079;-52
2021/12/06 05:09:40;;;;;;;8.85;3.15;;;;;;;3.15;100.00;100658.13;5054933;28;20069;-52
2021/12/06 05:12:10;;;;;;;11.38;1.85;;;;;;;3.17;100.00;100677.28;5055476;28;20489;-52
2021/12/06 05:14:39;;;;;;;9.32;2.08;;;;;;;3.30;100.00;100673.41;5056261;28;20071;-51
2021/12/06 05:17:08;;;;;;;9.07;2.05;;;;;;;3.32;100.00;100670.75;5055321;28;20064;-52
2021/12/06 05:19:37;;;;;;;15.65;3.05;;;;;;;3.29;100.00;100671.69;5054972;28;20057;-52
2021/12/06 05:22:06;;;;;;;11.18;2.70;;;;;;;3.38;100.00;100677.56;5055913;28;20060;-52
2021/12/06 05:24:34;;;;;;;5.53;2.10;;;;;;;3.35;100.00;100670.66;5054625;28;20053;-51
2021/12/06 05:27:04;;;;;;;7.75;1.98;;;;;;;3.30;100.00;100668.16;5054021;28;20060;-52
2021/12/06 05:29:34;;;;;;;16.00;2.15;;;;;;;3.34;100.00;100669.78;5054775;28;20057;-52
2021/12/06 05:32:03;;;;;;;9.98;1.85;;;;;;;3.38;100.00;100665.31;5054936;28;20059;-51
2021/12/06 05:34:38;;;;;;;7.32;1.80;;;;;;;3.45;100.00;100655.50;5054448;28;20433;-50
2021/12/06 05:37:07;;;;;;;10.35;2.13;;;;;;;3.46;100.00;100657.22;5054447;28;20057;-51
2021/12/06 05:39:36;;;;;;;9.90;1.95;;;;;;;3.41;100.00;100648.63;5054606;28;20069;-51
2021/12/06 05:42:07;;;;;;;5.85;1.80;;;;;;;3.32;100.00;100649.75;5054879;28;20071;-52
2021/12/06 05:44:35;;;;;;;11.80;2.92;;;;;;;3.23;100.00;100652.63;5054360;28;20064;-52
2021/12/06 05:47:04;;;;;;;19.95;2.55;;;;;;;3.19;100.00;100654.50;5055327;28;20053;-51
2021/12/06 05:49:34;;;;;;;6.40;1.88;;;;;;;3.33;100.00;100657.59;5054830;28;20053;-51
2021/12/06 05:52:02;;;;;;;11.98;2.10;;;;;;;3.32;100.00;100640.13;5054599;28;20061;-49
2021/12/06 05:54:30;;;;;;;12.95;2.90;;;;;;;3.34;100.00;100635.69;5054153;28;20057;-52
2021/12/06 05:57:00;;;;;;;6.53;2.00;;;;;;;3.32;100.00;100640.13;5054621;28;20068;-51
2021/12/06 05:59:28;;;;;;;12.15;2.20;;;;;;;3.31;100.00;100630.56;5054284;28;20059;-52
2021/12/06 06:01:57;;;;;;;14.25;2.15;;;;;;;3.38;100.00;100633.84;5054557;28;20076;-50
2021/12/06 06:04:26;;;;;;;8.57;2.05;;;;;;;3.47;100.00;100643.19;5054617;28;20068;-49
2021/12/06 06:06:55;;;;;;;11.50;2.15;;;;;;;3.51;100.00;100634.31;5054213;28;20136;-51
2021/12/06 06:09:23;;;;;;;14.43;2.75;;;;;;;3.60;99.87;100634.06;5054488;28;20057;-52
2021/12/06 06:11:52;;;;;;;12.02;2.13;;;;;;;3.63;99.53;100631.34;5054038;28;20061;-51
2021/12/06 06:14:20;;;;;;;13.60;1.80;;;;;;;3.71;98.69;100629.31;5054737;28;20056;-52
2021/12/06 06:16:51;;;;;;;5.20;1.77;;;;;;;3.71;98.72;100631.06;5054038;28;20057;-52
2021/12/06 06:19:21;;;;;;;11.07;2.65;;;;;;;3.73;98.96;100624.00;5054594;28;20053;-50
2021/12/06 06:21:49;;;;;;;11.50;2.65;;;;;;;3.79;98.94;100622.97;5054294;28;20060;-51
2021/12/06 06:24:19;;;;;;;10.07;2.22;;;;;;;3.78;98.66;100622.09;5053767;28;20057;-52
2021/12/06 06:26:47;;;;;;;9.63;2.40;;;;;;;3.83;99.27;100616.69;5054284;28;20080;-52
2021/12/06 06:29:16;;;;;;;7.45;2.35;;;;;;;3.93;98.42;100620.75;5053919;28;20048;-51
2021/12/06 06:31:45;;;;;;;10.70;1.88;;;;;;;3.95;97.69;100608.44;5054122;28;20064;-51
2021/12/06 06:34:13;;;;;;;12.07;1.85;;;;;;;4.02;97.29;100620.47;5053646;28;20111;-52
2021/12/06 06:36:41;;;;;;;13.02;2.10;;;;;;;4.07;96.67;100613.28;5053858;28;20571;-50
2021/12/06 06:39:10;;;;;;;9.45;1.63;;;;;;;4.13;96.86;100621.84;5057820;28;20064;-52
2021/12/06 06:41:40;;;;;;;8.13;1.40;;;;;;;4.17;96.56;100613.84;5058105;28;20448;-52
2021/12/06 06:44:08;;;;;;;8.55;2.22;;;;;;;4.21;96.30;100614.59;5057625;28;20060;-52
2021/12/06 06:46:36;;;;;;;9.05;2.22;;;;;;;4.33;95.60;100603.66;5057726;28;20053;-52
2021/12/06 06:49:05;;;;;;;15.45;1.83;;;;;;;4.31;95.38;100594.13;5057771;28;20082;-52
2021/12/06 06:51:33;;;;;;;5.90;1.60;;;;;;;4.35;94.78;100590.47;5057936;28;20071;-49
2021/12/06 06:54:01;;;;;;;10.57;1.52;;;;;;;4.39;94.12;100586.84;5058425;28;20075;-51
2021/12/06 06:56:30;;;;;;;11.48;2.05;;;;;;;4.41;94.43;100592.88;5057604;28;20551;-52
2021/12/06 06:59:00;;;;;;;6.35;1.55;;;;;;;4.41;94.53;100579.75;5057491;28;20053;-49
2021/12/06 07:01:28;;;;;;;11.82;2.70;;;;;;;4.46;94.29;100583.94;5058653;28;20381;-50
2021/12/06 07:03:57;;;;;;;9.70;2.47;;;;;;;4.49;94.10;100587.34;5057081;28;20516;-52
2021/12/06 07:06:27;;;;;;;11.07;2.28;;;;;;;4.53;93.68;100588.97;5057486;28;20059;-50
2021/12/06 07:08:56;;;;;;;7.45;2.47;;;;;;;4.52;93.85;100582.84;5057882;28;20408;-52
2021/12/06 07:11:27;;;;;;;8.82;2.00;;;;;;;4.51;93.92;100580.28;5057947;28;20056;-52
2021/12/06 07:13:56;;;;;;;7.35;1.85;;;;;;;4.49;94.26;100571.59;5057385;28;20053;-51
2021/12/06 07:16:26;;;;;;;9.52;2.00;;;;;;;4.50;94.15;100563.66;5057727;28;20057;-52
2021/12/06 07:18:54;;;;;;;15.00;2.00;;;;;;;4.51;94.48;100554.88;5057238;28;20057;-52
2021/12/06 07:21:23;;;;;;;10.05;1.90;;;;;;;4.56;94.39;100552.09;5056911;28;20076;-50
2021/12/06 07:23:51;;;;;;;13.27;3.10;;;;;;;4.56;94.41;100546.84;5057715;28;20416;-52
2021/12/06 07:26:21;;;;;;;14.10;2.05;;;;;;;4.62;93.86;100530.81;5057167;28;20554;-52
2021/12/06 07:28:51;;;;;;;13.48;1.65;;;;;;;4.63;94.10;100538.66;5057920;28;20057;-52
2021/12/06 07:31:19;;;;;;;6.45;1.90;;;;;;;4.73;93.01;100547.06;5057294;28;20408;-52
2021/12/06 07:33:50;;;;;;;10.82;1.90;;;;;;;4.77;92.91;100530.25;5057092;28;20496;-51
2021/12/06 07:36:18;;;;;;;10.98;2.08;;;;;;;4.77;92.76;100526.75;5056999;28;20072;-52
2021/12/06 07:38:47;;;;;;;7.47;1.80;;;;;;;4.76;93.36;100511.94;5057410;28;20132;-52
2021/12/06 07:41:18;;;;;;;13.90;2.00;;;;;;;4.75;93.70;100504.94;5057988;28;20064;-52
2021/12/06 07:43:47;;;;;;;13.07;2.28;;;;;;;4.78;93.69;100508.31;5056526;28;20053;-51
2021/12/06 07:46:16;;;;;;;8.73;1.88;;;;;;;4.71;94.20;100506.84;5057039;28;20052;-52
2021/12/06 07:48:45;;;;;;;12.18;2.30;;;;;;;4.80;94.07;100513.50;5056599;28;20092;-50
2021/12/06 07:51:15;;;;;;;6.80;2.20;;;;;;;4.80;94.03;100521.41;5056898;28;20076;-52
2021/12/06 07:53:43;;;;;;;11.82;2.00;;;;;;;4.87;93.42;100514.13;5057526;28;20088;-52
2021/12/06 07:56:11;;;;;;;15.75;2.35;;;;;;;4.98;93.35;100506.69;5056355;28;20061;-50
2021/12/06 07:58:39;;;;;;;10.38;2.10;;;;;;;4.92;93.35;100494.63;5056851;28;20056;-52
2021/12/06 08:01:08;;;;;;;7.15;1.92;;;;;;;4.95;93.73;100488.41;5057371;28;20412;-52
2021/12/06 08:03:37;;;;;;;13.82;2.63;;;;;;;4.95;93.92;100475.28;5057507;28;20061;-50
2021/12/06 08:06:06;;;;;;;13.20;2.28;;;;;;;4.97;94.09;100462.91;5056932;28;20060;-51
2021/12/06 08:08:38;;;;;;;15.65;2.85;;;;;;;5.04;93.02;100467.00;5056164;28;20542;-51
2021/12/06 08:11:08;;;;;;;;;;;;;;;5.05;92.79;100460.84;5057281;28;20057;-51
2021/12/06 08:13:38;;;;;;;27.15;5.00;;;;;;;5.12;93.05;100456.19;5055904;28;19920;-51
2021/12/06 08:16:08;;;;;;;18.58;3.95;;;;;;;5.13;92.87;100455.28;5056164;28;20144;-52
2021/12/06 08:18:37;;;;;;;17.25;3.13;;;;;;;5.21;91.49;100461.94;5055979;28;20096;-52
2021/12/06 08:21:07;;;;;;;5.72;1.80;;;;;;;5.24;92.15;100462.72;5056693;28;20068;-52
2021/12/06 08:23:37;;;;;;;6.30;2.15;;;;;;;5.36;91.56;100459.59;5056334;28;20087;-52
2021/12/06 08:26:09;;;;;;;8.98;1.90;;;;;;;5.34;90.58;100450.91;5056745;28;20057;-52
2021/12/06 08:28:37;;;;;;;14.60;2.25;;;;;;;5.35;90.95;100442.09;5056095;28;20053;-51
2021/12/06 08:31:07;;;;;;;7.80;1.55;;;;;;;5.36;91.38;100436.78;5056383;28;20493;-52
2021/12/06 08:33:35;;;;;;;10.07;2.28;;;;;;;5.49;91.02;100438.91;5056690;28;20068;-52
2021/12/06 08:36:06;;;;;;;8.90;1.60;;;;;;;5.59;91.32;100414.75;5055813;28;20496;-50
2021/12/06 08:38:37;;;;;;;8.68;1.48;;;;;;;5.66;90.83;100410.06;5056864;28;20128;-51
2021/12/06 08:41:09;;;;;;;9.68;2.03;;;;;;;5.68;91.89;100402.13;5056293;28;20416;-49
2021/12/06 08:43:37;;;;;;;;;;;;;;;5.58;93.38;100396.38;5056859;28;20057;-52
2021/12/06 08:46:13;;;;;;;17.02;1.98;;;;;;;5.56;93.79;100399.13;5055722;28;19971;-52
2021/12/06 08:48:42;;;;;;;9.80;2.63;;;;;;;5.48;95.04;100390.69;5055310;28;20057;-51
2021/12/06 08:51:13;;;;;;;6.85;1.50;;;;;;;5.44;96.72;100383.84;5055510;28;20064;-52
2021/12/06 08:53:43;;;;;;;10.27;1.93;;;;;;;5.45;96.52;100380.28;5055501;28;20061;-50
2021/12/06 08:56:12;;;;;;;13.57;1.60;;;;;;;5.46;96.97;100375.88;5055765;28;20061;-51
2021/12/06 08:58:42;;;;;;;9.63;2.55;;;;;;;5.53;95.65;100370.31;5055683;28;20061;-52
2021/12/06 09:01:11;;;;;;;14.60;2.10;;;;;;;5.58;95.90;100370.94;5054258;28;20059;-51
2021/12/06 09:03:59;;;;;;;18.95;2.28;;;;;;;5.65;97.03;100349.59;5055217;28;20061;-50
2021/12/06 09:06:28;;;;;;;6.18;1.50;;;;;;;5.76;97.01;100339.47;5056358;28;20432;-52
2021/12/06 09:08:58;;;;;;;9.55;1.65;;;;;;;5.71;97.76;100344.94;5055136;28;20057;-52
2021/12/06 09:11:26;;;;;;;8.73;1.70;;;;;;;5.87;97.77;100344.28;5055702;28;20057;-52
2021/12/06 09:13:54;;;;;;;10.55;1.60;;;;;;;5.93;98.11;100350.09;5054767;28;20508;-51
2021/12/06 09:16:22;;;;;;;7.63;1.40;;;;;;;5.85;99.51;100344.34;5055079;28;20165;-51
2021/12/06 09:18:51;;;;;;;8.80;1.95;;;;;;;5.76;100.00;100342.94;5055681;28;20084;-49
2021/12/06 09:21:21;;;;;;;6.10;1.52;;;;;;;5.70;100.00;100353.78;5055561;28;20064;-52
2021/12/06 09:23:49;;;;;;;15.25;1.83;;;;;;;5.64;100.00;100358.44;5055002;28;20060;-52
2021/12/06 09:26:19;;;;;;;9.25;1.85;;;;;;;5.48;100.00;100347.72;5054838;28;20071;-51
2021/12/06 09:28:47;;;;;;;12.40;2.03;;;;;;;5.45;100.00;100343.47;5055390;28;20053;-52
2021/12/06 09:31:18;;;;;;;8.07;1.63;;;;;;;5.42;100.00;100345.38;5054771;28;20053;-52
2021/12/06 09:33:46;;;;;;;9.98;1.85;;;;;;;5.38;100.00;100342.03;5055057;28;20061;-52
2021/12/06 09:36:15;;;;;;;13.00;2.30;;;;;;;5.39;100.00;100330.56;5054892;28;20060;-52
2021/12/06 09:38:44;;;;;;;16.25;1.90;;;;;;;5.48;100.00;100317.03;5054582;28;20060;-51
2021/12/06 09:41:18;;;;;;;11.90;2.53;;;;;;;5.56;100.00;100309.66;5054885;28;20068;-52
2021/12/06 09:43:49;;;;;;;14.80;2.20;;;;;;;5.66;100.00;100311.84;5055427;28;20501;-52
2021/12/06 09:46:18;;;;;;;8.52;2.22;;;;;;;5.75;100.00;100299.16;5055670;28;20060;-52
2021/12/06 09:48:48;;;;;;;9.75;2.00;;;;;;;5.81;100.00;100284.84;5054795;28;20136;-54
2021/12/06 09:51:19;;;;;;;9.10;2.45;;;;;;;5.80;100.00;100272.63;5054685;28;20053;-51
2021/12/06 09:53:48;;;;;;;12.90;2.42;;;;;;;5.70;100.00;100273.94;5055791;28;20056;-52
2021/12/06 09:56:20;;;;;;;12.55;1.83;;;;;;;5.65;100.00;100260.13;5055182;28;20052;-52
2021/12/06 09:58:50;;;;;;;16.30;2.13;;;;;;;5.82;100.00;100254.13;5055199;28;20091;-51
2021/12/06 10:01:21;;;;;;;4.85;1.60;;;;;;;5.92;100.00;100263.28;5054044;28;20060;-52
2021/12/06 10:03:53;;;;;;;16.45;2.63;;;;;;;6.01;100.00;100256.78;5055179;28;20469;-51
2021/12/06 10:06:22;;;;;;;8.23;2.20;;;;;;;6.01;100.00;100267.31;5055413;28;20103;-52
2021/12/06 10:08:52;;;;;;;12.98;2.05;;;;;;;5.95;100.00;100248.22;5054579;28;20136;-51
2021/12/06 10:11:23;;;;;;;6.32;1.33;;;;;;;6.12;100.00;100263.25;5054715;28;20057;-52
2021/12/06 10:13:55;;;;;;;13.30;3.83;;;;;;;6.21;100.00;100243.50;5054910;28;20186;-52
2021/12/06 10:16:23;;;;;;;11.75;2.95;;;;;;;6.25;100.00;100231.88;5055122;28;20067;-51
2021/12/06 10:18:52;;;;;;;7.82;2.78;;;;;;;6.35;100.00;100216.47;5054372;28;20056;-52
2021/12/06 10:21:23;;;;;;;8.80;3.00;;;;;;;6.44;100.00;100228.34;5053933;28;20055;-52
2021/12/06 10:23:53;;;;;;;6.40;2.83;;;;;;;6.52;100.00;100215.63;5053756;28;20063;-52
2021/12/06 10:26:24;;;;;;;8.80;3.97;;;;;;;6.54;100.00;100213.81;5053953;28;20053;-52
2021/12/06 10:28:58;;;;;;;11.15;5.10;;;;;;;6.49;100.00;100213.19;5055118;28;20060;-51
2021/12/06 10:31:27;;;;;;;10.45;5.93;;;;;;;6.53;100.00;100196.28;5054452;28;20064;-52
2021/12/06 10:33:55;;;;;;;6.88;4.25;;;;;;;6.57;100.00;100200.44;5054130;28;20566;-51
2021/12/06 10:36:27;;;;;;;8.40;3.40;;;;;;;6.56;100.00;100190.84;5054175;28;20497;-52
2021/12/06 10:39:01;;;;;;;;;;;;;;;6.61;100.00;100188.84;5054970;28;20057;-52
2021/12/06 10:41:32;;;;;;;5.80;2.10;;;;;;;6.83;100.00;100171.94;5054574;28;19921;-51
2021/12/06 10:44:04;;;;;;;7.40;1.75;;;;;;;6.95;100.00;100165.16;5053572;28;20057;-51
2021/12/06 10:46:34;;;;;;;4.00;1.50;;;;;;;7.33;100.00;100170.16;5054496;28;20064;-51
2021/12/06 10:49:05;;;;;;;5.45;1.42;;;;;;;7.96;100.00;100177.25;5054933;28;20053;-50
2021/12/06 10:51:34;;;;;;;2.45;1.20;;;;;;;9.01;98.75;100174.69;5054410;28;20072;-50
2021/12/06 10:54:07;;;;;;;2.95;1.27;;;;;;;10.83;88.00;100170.94;5054094;28;20412;-52
2021/12/06 10:56:41;;;;;;;1.40;0.90;;;;;;;11.00;82.35;100175.09;5053768;28;20123;-51
2021/12/06 10:59:15;;;;;;;2.00;0.80;;;;;;;10.00;86.75;100174.66;5053715;28;20059;-52
2021/12/06 11:01:44;;;;;;;2.97;1.10;;;;;;;9.16;91.72;100162.28;5053998;28;20053;-52
2021/12/06 11:04:16;;;;;;;2.05;0.80;;;;;;;8.78;96.45;100149.63;5053427;28;20067;-50
2021/12/06 11:06:47;;;;;;;2.30;1.00;;;;;;;8.72;96.98;100136.75;5054231;28;20119;-52
2021/12/06 11:09:17;;;;;;;3.10;1.35;;;;;;;9.10;96.80;100120.34;5053697;28;20381;-52
2021/12/06 11:11:49;;;;;;;3.00;1.08;;;;;;;10.40;89.97;100134.06;5053182;28;20057;-52
2021/12/06 11:14:22;;;;;;;3.72;0.93;;;;;;;11.82;81.55;100132.97;5053867;28;20057;-52
2021/12/06 11:16:53;;;;;;;2.63;0.98;;;;;;;11.71;78.56;100122.28;5054471;28;20093;-52
2021/12/06 11:19:23;;;;;;;2.88;1.10;;;;;;;11.52;83.20;100113.00;5054649;28;20085;-50
2021/12/06 11:21:53;;;;;;;2.35;0.80;;;;;;;12.20;78.19;100113.34;5053804;28;20057;-51
2021/12/06 11:24:23;;;;;;;3.97;1.00;;;;;;;12.60;75.14;100126.28;5053989;28;20067;-52
2021/12/06 11:26:57;;;;;;;1.38;0.90;;;;;;;11.61;78.88;100115.94;5056942;28;20500;-52
2021/12/06 11:29:29;;;;;;;1.95;0.90;;;;;;;10.33;86.85;100123.03;5057226;28;20067;-51
2021/12/06 11:32:10;;;;;;;1.70;0.80;;;;;;;9.80;91.39;100138.84;5056865;28;20124;-52
2021/12/06 11:34:42;;;;;;;2.25;0.80;;;;;;;9.56;93.84;100132.47;5056730;28;20053;-49
2021/12/06 11:37:18;;;;;;;;;;;;;;;9.64;95.04;100131.03;5057176;28;20059;-52
2021/12/06 11:39:50;;;;;;;1.77;1.00;;;;;;;11.36;85.26;100132.78;5056909;28;19921;-51
2021/12/06 11:42:18;;;;;;;0.93;0.60;;;;;;;12.50;79.73;100151.06;5057667;28;20053;-50